sensor_id;sensor_type;location;lat;lon;timestamp;P1;durP1;ratioP1;P2;durP2;ratioP2
33327;SDS011;19692;52.998;9.116;2023-12-28T00:01:24;4.20;;;3.50;;
33327;SDS011;19692;52.998;9.116;2023-12-28T00:03:50;4.40;;;3.67;;
33327;SDS011;19692;52.998;9.116;2023-12-28T00:06:15;3.50;;;3.17;;
33327;SDS011;19692;52.998;9.116;2023-12-28T00:08:42;4.17;;;3.77;;
33327;SDS011;19692;52.998;9.116;2023-12-28T00:11:08;5.27;;;3.30;;
33327;SDS011;19692;52.998;9.116;2023-12-28T00:13:33;4.97;;;3.97;;
33327;SDS011;19692;52.998;9.116;2023-12-28T00:15:59;4.27;;;3.77;;
33327;SDS011;19692;52.998;9.116;2023-12-28T00:18:25;4.00;;;3.60;;
33327;SDS011;19692;52.998;9.116;2023-12-28T00:20:51;4.43;;;4.03;;
33327;SDS011;19692;52.998;9.116;2023-12-28T00:23:17;3.73;;;3.33;;
33327;SDS011;19692;52.998;9.116;2023-12-28T00:25:45;4.50;;;3.50;;
33327;SDS011;19692;52.998;9.116;2023-12-28T00:28:11;4.43;;;3.93;;
33327;SDS011;19692;52.998;9.116;2023-12-28T00:30:36;4.40;;;3.53;;
33327;SDS011;19692;52.998;9.116;2023-12-28T00:33:02;4.50;;;4.07;;
33327;SDS011;19692;52.998;9.116;2023-12-28T00:35:28;4.40;;;4.00;;
33327;SDS011;19692;52.998;9.116;2023-12-28T00:37:54;3.77;;;3.40;;
33327;SDS011;19692;52.998;9.116;2023-12-28T00:40:19;5.47;;;3.50;;
33327;SDS011;19692;52.998;9.116;2023-12-28T00:42:46;3.63;;;3.23;;
33327;SDS011;19692;52.998;9.116;2023-12-28T00:45:13;4.70;;;3.77;;
33327;SDS011;19692;52.998;9.116;2023-12-28T00:47:39;3.93;;;3.53;;
33327;SDS011;19692;52.998;9.116;2023-12-28T00:50:04;3.87;;;3.53;;
33327;SDS011;19692;52.998;9.116;2023-12-28T00:52:30;5.93;;;3.97;;
33327;SDS011;19692;52.998;9.116;2023-12-28T00:54:56;4.00;;;3.70;;
33327;SDS011;19692;52.998;9.116;2023-12-28T00:57:22;4.17;;;3.77;;
33327;SDS011;19692;52.998;9.116;2023-12-28T00:59:48;4.50;;;4.10;;
33327;SDS011;19692;52.998;9.116;2023-12-28T01:02:13;3.93;;;3.63;;
33327;SDS011;19692;52.998;9.116;2023-12-28T01:04:39;5.63;;;3.87;;
33327;SDS011;19692;52.998;9.116;2023-12-28T01:07:05;5.07;;;4.07;;
33327;SDS011;19692;52.998;9.116;2023-12-28T01:09:31;5.33;;;4.00;;
33327;SDS011;19692;52.998;9.116;2023-12-28T01:11:59;4.17;;;3.77;;
33327;SDS011;19692;52.998;9.116;2023-12-28T01:14:25;4.90;;;4.50;;
33327;SDS011;19692;52.998;9.116;2023-12-28T01:16:51;4.90;;;4.40;;
33327;SDS011;19692;52.998;9.116;2023-12-28T01:19:16;4.97;;;4.27;;
33327;SDS011;19692;52.998;9.116;2023-12-28T01:21:42;3.97;;;3.57;;
33327;SDS011;19692;52.998;9.116;2023-12-28T01:24:08;4.77;;;4.13;;
33327;SDS011;19692;52.998;9.116;2023-12-28T01:26:33;4.47;;;4.03;;
33327;SDS011;19692;52.998;9.116;2023-12-28T01:28:59;5.30;;;4.17;;
33327;SDS011;19692;52.998;9.116;2023-12-28T01:31:28;4.70;;;4.30;;
33327;SDS011;19692;52.998;9.116;2023-12-28T01:33:54;4.80;;;3.97;;
33327;SDS011;19692;52.998;9.116;2023-12-28T01:36:20;4.73;;;4.33;;
33327;SDS011;19692;52.998;9.116;2023-12-28T01:38:47;4.37;;;3.97;;
33327;SDS011;19692;52.998;9.116;2023-12-28T01:41:13;6.97;;;4.83;;
33327;SDS011;19692;52.998;9.116;2023-12-28T01:43:41;4.93;;;4.43;;
33327;SDS011;19692;52.998;9.116;2023-12-28T01:46:18;4.60;;;4.20;;
33327;SDS011;19692;52.998;9.116;2023-12-28T01:48:47;4.70;;;3.80;;
33327;SDS011;19692;52.998;9.116;2023-12-28T01:51:15;5.23;;;4.17;;
33327;SDS011;19692;52.998;9.116;2023-12-28T01:53:44;4.87;;;4.47;;
33327;SDS011;19692;52.998;9.116;2023-12-28T01:56:12;6.40;;;4.40;;
33327;SDS011;19692;52.998;9.116;2023-12-28T01:58:39;5.43;;;4.70;;
33327;SDS011;19692;52.998;9.116;2023-12-28T02:01:06;5.30;;;4.47;;
33327;SDS011;19692;52.998;9.116;2023-12-28T02:03:32;5.60;;;4.60;;
33327;SDS011;19692;52.998;9.116;2023-12-28T02:05:58;7.97;;;5.00;;
33327;SDS011;19692;52.998;9.116;2023-12-28T02:08:25;5.70;;;5.20;;
33327;SDS011;19692;52.998;9.116;2023-12-28T02:10:51;5.23;;;4.50;;
33327;SDS011;19692;52.998;9.116;2023-12-28T02:13:17;5.33;;;4.77;;
33327;SDS011;19692;52.998;9.116;2023-12-28T02:15:43;5.17;;;4.50;;
33327;SDS011;19692;52.998;9.116;2023-12-28T02:18:12;5.50;;;4.70;;
33327;SDS011;19692;52.998;9.116;2023-12-28T02:20:45;5.83;;;4.47;;
33327;SDS011;19692;52.998;9.116;2023-12-28T02:23:12;5.50;;;4.23;;
33327;SDS011;19692;52.998;9.116;2023-12-28T02:25:37;5.50;;;4.83;;
33327;SDS011;19692;52.998;9.116;2023-12-28T02:28:03;5.20;;;4.70;;
33327;SDS011;19692;52.998;9.116;2023-12-28T02:30:29;5.07;;;4.57;;
33327;SDS011;19692;52.998;9.116;2023-12-28T02:35:57;5.17;;;4.70;;
33327;SDS011;19692;52.998;9.116;2023-12-28T02:38:28;5.50;;;5.00;;
33327;SDS011;19692;52.998;9.116;2023-12-28T02:40:55;5.37;;;4.17;;
33327;SDS011;19692;52.998;9.116;2023-12-28T02:43:22;4.90;;;4.40;;
33327;SDS011;19692;52.998;9.116;2023-12-28T02:45:48;5.90;;;4.60;;
33327;SDS011;19692;52.998;9.116;2023-12-28T02:48:14;6.20;;;5.60;;
33327;SDS011;19692;52.998;9.116;2023-12-28T02:50:39;5.43;;;4.93;;
33327;SDS011;19692;52.998;9.116;2023-12-28T02:53:05;5.53;;;4.60;;
33327;SDS011;19692;52.998;9.116;2023-12-28T02:55:31;5.00;;;4.50;;
33327;SDS011;19692;52.998;9.116;2023-12-28T02:57:57;5.70;;;4.97;;
33327;SDS011;19692;52.998;9.116;2023-12-28T03:00:26;5.17;;;4.73;;
33327;SDS011;19692;52.998;9.116;2023-12-28T03:02:52;5.13;;;4.73;;
33327;SDS011;19692;52.998;9.116;2023-12-28T03:05:18;4.83;;;4.30;;
33327;SDS011;19692;52.998;9.116;2023-12-28T03:07:44;6.50;;;5.77;;
33327;SDS011;19692;52.998;9.116;2023-12-28T03:10:10;5.23;;;4.80;;
33327;SDS011;19692;52.998;9.116;2023-12-28T03:12:36;5.83;;;4.63;;
33327;SDS011;19692;52.998;9.116;2023-12-28T03:15:03;5.37;;;4.87;;
33327;SDS011;19692;52.998;9.116;2023-12-28T03:17:30;6.33;;;4.50;;
33327;SDS011;19692;52.998;9.116;2023-12-28T03:19:58;5.40;;;4.90;;
33327;SDS011;19692;52.998;9.116;2023-12-28T03:22:24;5.30;;;4.77;;
33327;SDS011;19692;52.998;9.116;2023-12-28T03:24:50;6.17;;;5.00;;
33327;SDS011;19692;52.998;9.116;2023-12-28T03:27:16;8.40;;;4.50;;
33327;SDS011;19692;52.998;9.116;2023-12-28T03:29:42;5.77;;;4.97;;
33327;SDS011;19692;52.998;9.116;2023-12-28T03:32:08;5.77;;;5.10;;
33327;SDS011;19692;52.998;9.116;2023-12-28T03:34:34;5.97;;;5.07;;
33327;SDS011;19692;52.998;9.116;2023-12-28T03:37:00;5.90;;;5.00;;
33327;SDS011;19692;52.998;9.116;2023-12-28T03:39:27;6.27;;;4.63;;
33327;SDS011;19692;52.998;9.116;2023-12-28T03:41:52;5.40;;;4.63;;
33327;SDS011;19692;52.998;9.116;2023-12-28T03:44:19;6.13;;;5.50;;
33327;SDS011;19692;52.998;9.116;2023-12-28T03:46:48;6.33;;;5.10;;
33327;SDS011;19692;52.998;9.116;2023-12-28T03:49:18;7.70;;;5.53;;
33327;SDS011;19692;52.998;9.116;2023-12-28T03:51:44;7.80;;;5.43;;
33327;SDS011;19692;52.998;9.116;2023-12-28T03:54:10;6.37;;;4.67;;
33327;SDS011;19692;52.998;9.116;2023-12-28T03:56:37;5.57;;;5.07;;
33327;SDS011;19692;52.998;9.116;2023-12-28T03:59:05;6.80;;;5.13;;
33327;SDS011;19692;52.998;9.116;2023-12-28T04:01:31;6.60;;;5.73;;
33327;SDS011;19692;52.998;9.116;2023-12-28T04:03:57;7.23;;;4.90;;
33327;SDS011;19692;52.998;9.116;2023-12-28T04:06:23;7.43;;;5.20;;
33327;SDS011;19692;52.998;9.116;2023-12-28T04:08:49;4.80;;;4.40;;
33327;SDS011;19692;52.998;9.116;2023-12-28T04:11:14;7.63;;;5.30;;
33327;SDS011;19692;52.998;9.116;2023-12-28T04:13:40;5.37;;;4.87;;
33327;SDS011;19692;52.998;9.116;2023-12-28T04:16:06;5.93;;;4.70;;
33327;SDS011;19692;52.998;9.116;2023-12-28T04:18:32;6.67;;;5.10;;
33327;SDS011;19692;52.998;9.116;2023-12-28T04:20:58;5.43;;;4.80;;
33327;SDS011;19692;52.998;9.116;2023-12-28T04:23:24;6.40;;;5.27;;
33327;SDS011;19692;52.998;9.116;2023-12-28T04:25:50;6.37;;;5.13;;
33327;SDS011;19692;52.998;9.116;2023-12-28T04:28:16;6.50;;;5.13;;
33327;SDS011;19692;52.998;9.116;2023-12-28T04:30:41;5.80;;;5.30;;
33327;SDS011;19692;52.998;9.116;2023-12-28T04:33:07;8.73;;;5.37;;
33327;SDS011;19692;52.998;9.116;2023-12-28T04:35:33;8.67;;;5.57;;
33327;SDS011;19692;52.998;9.116;2023-12-28T04:37:58;6.00;;;5.20;;
33327;SDS011;19692;52.998;9.116;2023-12-28T04:40:24;8.07;;;5.00;;
33327;SDS011;19692;52.998;9.116;2023-12-28T04:42:50;5.40;;;4.90;;
33327;SDS011;19692;52.998;9.116;2023-12-28T04:45:16;5.90;;;5.40;;
33327;SDS011;19692;52.998;9.116;2023-12-28T04:47:41;7.23;;;5.37;;
33327;SDS011;19692;52.998;9.116;2023-12-28T04:50:07;6.03;;;5.20;;
33327;SDS011;19692;52.998;9.116;2023-12-28T04:52:33;5.73;;;5.10;;
33327;SDS011;19692;52.998;9.116;2023-12-28T04:54:59;6.37;;;4.90;;
33327;SDS011;19692;52.998;9.116;2023-12-28T04:57:24;6.07;;;5.47;;
33327;SDS011;19692;52.998;9.116;2023-12-28T04:59:51;6.57;;;4.80;;
33327;SDS011;19692;52.998;9.116;2023-12-28T05:02:17;7.87;;;5.63;;
33327;SDS011;19692;52.998;9.116;2023-12-28T05:04:43;6.13;;;5.53;;
33327;SDS011;19692;52.998;9.116;2023-12-28T05:07:09;9.27;;;5.83;;
33327;SDS011;19692;52.998;9.116;2023-12-28T05:09:35;5.93;;;5.20;;
33327;SDS011;19692;52.998;9.116;2023-12-28T05:12:01;6.10;;;5.50;;
33327;SDS011;19692;52.998;9.116;2023-12-28T05:14:27;7.47;;;5.70;;
33327;SDS011;19692;52.998;9.116;2023-12-28T05:16:53;7.47;;;5.90;;
33327;SDS011;19692;52.998;9.116;2023-12-28T05:19:18;6.07;;;5.23;;
33327;SDS011;19692;52.998;9.116;2023-12-28T05:21:44;5.67;;;5.07;;
33327;SDS011;19692;52.998;9.116;2023-12-28T05:24:11;6.37;;;5.77;;
33327;SDS011;19692;52.998;9.116;2023-12-28T05:26:37;6.93;;;5.17;;
33327;SDS011;19692;52.998;9.116;2023-12-28T05:29:02;5.63;;;4.90;;
33327;SDS011;19692;52.998;9.116;2023-12-28T05:31:28;5.47;;;4.97;;
33327;SDS011;19692;52.998;9.116;2023-12-28T05:33:54;8.57;;;5.20;;
33327;SDS011;19692;52.998;9.116;2023-12-28T05:36:20;5.70;;;4.83;;
33327;SDS011;19692;52.998;9.116;2023-12-28T05:38:45;5.60;;;5.00;;
33327;SDS011;19692;52.998;9.116;2023-12-28T05:41:11;6.70;;;4.90;;
33327;SDS011;19692;52.998;9.116;2023-12-28T05:43:37;5.53;;;3.77;;
33327;SDS011;19692;52.998;9.116;2023-12-28T05:46:03;8.27;;;4.30;;
33327;SDS011;19692;52.998;9.116;2023-12-28T05:48:30;8.20;;;4.47;;
33327;SDS011;19692;52.998;9.116;2023-12-28T05:50:59;6.07;;;4.30;;
33327;SDS011;19692;52.998;9.116;2023-12-28T05:53:25;6.87;;;4.93;;
33327;SDS011;19692;52.998;9.116;2023-12-28T05:55:52;5.80;;;4.07;;
33327;SDS011;19692;52.998;9.116;2023-12-28T05:58:18;8.27;;;4.90;;
33327;SDS011;19692;52.998;9.116;2023-12-28T06:00:44;7.17;;;4.80;;
33327;SDS011;19692;52.998;9.116;2023-12-28T06:03:13;5.73;;;4.30;;
33327;SDS011;19692;52.998;9.116;2023-12-28T06:05:39;7.33;;;4.23;;
33327;SDS011;19692;52.998;9.116;2023-12-28T06:08:05;7.83;;;5.03;;
33327;SDS011;19692;52.998;9.116;2023-12-28T06:10:31;7.07;;;4.40;;
33327;SDS011;19692;52.998;9.116;2023-12-28T06:12:57;9.50;;;4.67;;
33327;SDS011;19692;52.998;9.116;2023-12-28T06:15:23;5.73;;;4.33;;
33327;SDS011;19692;52.998;9.116;2023-12-28T06:17:48;7.83;;;3.90;;
33327;SDS011;19692;52.998;9.116;2023-12-28T06:20:14;8.93;;;4.20;;
33327;SDS011;19692;52.998;9.116;2023-12-28T06:22:40;6.53;;;4.23;;
33327;SDS011;19692;52.998;9.116;2023-12-28T06:25:06;5.80;;;3.90;;
33327;SDS011;19692;52.998;9.116;2023-12-28T06:27:32;6.83;;;3.83;;
33327;SDS011;19692;52.998;9.116;2023-12-28T06:29:57;10.13;;;3.93;;
33327;SDS011;19692;52.998;9.116;2023-12-28T06:32:23;9.70;;;4.97;;
33327;SDS011;19692;52.998;9.116;2023-12-28T06:34:50;7.20;;;3.83;;
33327;SDS011;19692;52.998;9.116;2023-12-28T06:37:15;6.27;;;3.00;;
33327;SDS011;19692;52.998;9.116;2023-12-28T06:39:41;8.10;;;4.03;;
33327;SDS011;19692;52.998;9.116;2023-12-28T06:42:07;6.63;;;3.40;;
33327;SDS011;19692;52.998;9.116;2023-12-28T06:44:33;5.63;;;3.53;;
33327;SDS011;19692;52.998;9.116;2023-12-28T06:46:58;7.57;;;3.67;;
33327;SDS011;19692;52.998;9.116;2023-12-28T06:49:24;5.20;;;3.63;;
33327;SDS011;19692;52.998;9.116;2023-12-28T06:51:51;7.83;;;3.93;;
33327;SDS011;19692;52.998;9.116;2023-12-28T06:54:16;6.00;;;3.73;;
33327;SDS011;19692;52.998;9.116;2023-12-28T06:56:42;6.70;;;3.40;;
33327;SDS011;19692;52.998;9.116;2023-12-28T06:59:08;5.67;;;3.27;;
33327;SDS011;19692;52.998;9.116;2023-12-28T07:01:40;5.97;;;3.10;;
33327;SDS011;19692;52.998;9.116;2023-12-28T07:04:06;7.57;;;3.23;;
33327;SDS011;19692;52.998;9.116;2023-12-28T07:06:32;4.77;;;3.20;;
33327;SDS011;19692;52.998;9.116;2023-12-28T07:08:58;6.23;;;3.73;;
33327;SDS011;19692;52.998;9.116;2023-12-28T07:11:24;9.13;;;3.87;;
33327;SDS011;19692;52.998;9.116;2023-12-28T07:13:51;7.97;;;3.67;;
33327;SDS011;19692;52.998;9.116;2023-12-28T07:16:17;7.87;;;4.20;;
33327;SDS011;19692;52.998;9.116;2023-12-28T07:18:43;5.73;;;2.93;;
33327;SDS011;19692;52.998;9.116;2023-12-28T07:21:08;10.03;;;3.57;;
33327;SDS011;19692;52.998;9.116;2023-12-28T07:23:34;8.10;;;3.30;;
33327;SDS011;19692;52.998;9.116;2023-12-28T07:26:00;9.00;;;3.30;;
33327;SDS011;19692;52.998;9.116;2023-12-28T07:28:27;5.53;;;3.30;;
33327;SDS011;19692;52.998;9.116;2023-12-28T07:30:53;6.37;;;3.10;;
33327;SDS011;19692;52.998;9.116;2023-12-28T07:33:19;5.57;;;3.30;;
33327;SDS011;19692;52.998;9.116;2023-12-28T07:35:45;7.23;;;2.73;;
33327;SDS011;19692;52.998;9.116;2023-12-28T07:38:11;8.10;;;3.10;;
33327;SDS011;19692;52.998;9.116;2023-12-28T07:40:37;9.83;;;3.47;;
33327;SDS011;19692;52.998;9.116;2023-12-28T07:43:03;4.87;;;3.07;;
33327;SDS011;19692;52.998;9.116;2023-12-28T07:45:29;7.77;;;3.47;;
33327;SDS011;19692;52.998;9.116;2023-12-28T07:47:55;11.27;;;4.20;;
33327;SDS011;19692;52.998;9.116;2023-12-28T07:50:21;5.73;;;3.17;;
33327;SDS011;19692;52.998;9.116;2023-12-28T07:52:47;7.47;;;3.00;;
33327;SDS011;19692;52.998;9.116;2023-12-28T07:55:14;9.40;;;2.97;;
33327;SDS011;19692;52.998;9.116;2023-12-28T07:57:40;7.30;;;3.67;;
33327;SDS011;19692;52.998;9.116;2023-12-28T08:00:06;5.43;;;2.97;;
33327;SDS011;19692;52.998;9.116;2023-12-28T08:02:33;6.13;;;3.07;;
33327;SDS011;19692;52.998;9.116;2023-12-28T08:04:59;7.27;;;3.43;;
33327;SDS011;19692;52.998;9.116;2023-12-28T08:07:25;9.47;;;3.33;;
33327;SDS011;19692;52.998;9.116;2023-12-28T08:09:51;9.23;;;3.20;;
33327;SDS011;19692;52.998;9.116;2023-12-28T08:12:17;10.30;;;3.13;;
33327;SDS011;19692;52.998;9.116;2023-12-28T08:14:43;7.93;;;3.33;;
33327;SDS011;19692;52.998;9.116;2023-12-28T08:17:09;7.27;;;2.90;;
33327;SDS011;19692;52.998;9.116;2023-12-28T08:19:35;6.43;;;3.00;;
33327;SDS011;19692;52.998;9.116;2023-12-28T08:22:01;6.97;;;3.03;;
33327;SDS011;19692;52.998;9.116;2023-12-28T08:24:27;9.13;;;3.20;;
33327;SDS011;19692;52.998;9.116;2023-12-28T08:26:53;8.37;;;3.07;;
33327;SDS011;19692;52.998;9.116;2023-12-28T08:29:19;7.57;;;2.77;;
33327;SDS011;19692;52.998;9.116;2023-12-28T08:31:45;8.33;;;3.10;;
33327;SDS011;19692;52.998;9.116;2023-12-28T08:34:11;9.67;;;3.27;;
33327;SDS011;19692;52.998;9.116;2023-12-28T08:36:37;11.13;;;3.30;;
33327;SDS011;19692;52.998;9.116;2023-12-28T08:39:03;10.13;;;3.57;;
33327;SDS011;19692;52.998;9.116;2023-12-28T08:41:29;5.90;;;2.90;;
33327;SDS011;19692;52.998;9.116;2023-12-28T08:43:54;5.27;;;2.90;;
33327;SDS011;19692;52.998;9.116;2023-12-28T08:46:23;8.97;;;2.93;;
33327;SDS011;19692;52.998;9.116;2023-12-28T08:48:52;9.67;;;3.03;;
33327;SDS011;19692;52.998;9.116;2023-12-28T08:51:18;11.27;;;3.00;;
33327;SDS011;19692;52.998;9.116;2023-12-28T08:53:43;9.00;;;3.53;;
33327;SDS011;19692;52.998;9.116;2023-12-28T08:56:13;6.57;;;2.70;;
33327;SDS011;19692;52.998;9.116;2023-12-28T08:58:44;10.57;;;3.50;;
33327;SDS011;19692;52.998;9.116;2023-12-28T09:01:30;6.30;;;3.23;;
33327;SDS011;19692;52.998;9.116;2023-12-28T09:03:58;8.03;;;3.10;;
33327;SDS011;19692;52.998;9.116;2023-12-28T09:06:24;10.87;;;2.87;;
33327;SDS011;19692;52.998;9.116;2023-12-28T09:08:51;8.50;;;2.60;;
33327;SDS011;19692;52.998;9.116;2023-12-28T09:11:18;9.87;;;3.03;;
33327;SDS011;19692;52.998;9.116;2023-12-28T09:13:45;8.40;;;3.07;;
33327;SDS011;19692;52.998;9.116;2023-12-28T09:16:12;9.50;;;3.40;;
33327;SDS011;19692;52.998;9.116;2023-12-28T09:18:39;7.87;;;3.20;;
33327;SDS011;19692;52.998;9.116;2023-12-28T09:21:07;9.57;;;3.00;;
33327;SDS011;19692;52.998;9.116;2023-12-28T09:23:34;6.90;;;2.50;;
33327;SDS011;19692;52.998;9.116;2023-12-28T09:26:01;8.50;;;3.30;;
33327;SDS011;19692;52.998;9.116;2023-12-28T09:28:28;8.70;;;3.03;;
33327;SDS011;19692;52.998;9.116;2023-12-28T09:30:55;5.87;;;2.97;;
33327;SDS011;19692;52.998;9.116;2023-12-28T09:33:20;7.80;;;3.20;;
33327;SDS011;19692;52.998;9.116;2023-12-28T09:35:46;7.40;;;3.00;;
33327;SDS011;19692;52.998;9.116;2023-12-28T09:38:13;9.37;;;2.87;;
33327;SDS011;19692;52.998;9.116;2023-12-28T09:40:42;9.63;;;2.60;;
33327;SDS011;19692;52.998;9.116;2023-12-28T09:43:12;9.93;;;3.20;;
33327;SDS011;19692;52.998;9.116;2023-12-28T09:45:49;9.10;;;2.90;;
33327;SDS011;19692;52.998;9.116;2023-12-28T09:48:18;7.27;;;3.00;;
33327;SDS011;19692;52.998;9.116;2023-12-28T09:50:50;7.50;;;3.17;;
33327;SDS011;19692;52.998;9.116;2023-12-28T09:53:20;8.73;;;2.97;;
33327;SDS011;19692;52.998;9.116;2023-12-28T09:55:50;8.27;;;3.10;;
33327;SDS011;19692;52.998;9.116;2023-12-28T09:58:19;10.10;;;3.13;;
33327;SDS011;19692;52.998;9.116;2023-12-28T10:00:47;9.80;;;3.10;;
33327;SDS011;19692;52.998;9.116;2023-12-28T10:03:17;11.10;;;3.13;;
33327;SDS011;19692;52.998;9.116;2023-12-28T10:05:45;10.67;;;2.93;;
33327;SDS011;19692;52.998;9.116;2023-12-28T10:08:12;10.10;;;2.97;;
33327;SDS011;19692;52.998;9.116;2023-12-28T10:10:39;10.23;;;2.90;;
33327;SDS011;19692;52.998;9.116;2023-12-28T10:13:10;10.87;;;3.27;;
33327;SDS011;19692;52.998;9.116;2023-12-28T10:15:36;12.83;;;3.47;;
33327;SDS011;19692;52.998;9.116;2023-12-28T10:18:05;10.20;;;3.63;;
33327;SDS011;19692;52.998;9.116;2023-12-28T10:20:31;9.10;;;3.70;;
33327;SDS011;19692;52.998;9.116;2023-12-28T10:22:58;6.37;;;3.53;;
33327;SDS011;19692;52.998;9.116;2023-12-28T10:25:24;10.07;;;3.20;;
33327;SDS011;19692;52.998;9.116;2023-12-28T10:27:50;10.50;;;3.20;;
33327;SDS011;19692;52.998;9.116;2023-12-28T10:30:17;8.33;;;2.97;;
33327;SDS011;19692;52.998;9.116;2023-12-28T10:32:45;9.00;;;4.17;;
33327;SDS011;19692;52.998;9.116;2023-12-28T10:35:10;12.03;;;4.30;;
33327;SDS011;19692;52.998;9.116;2023-12-28T10:37:36;8.80;;;4.00;;
33327;SDS011;19692;52.998;9.116;2023-12-28T10:40:07;11.80;;;4.70;;
33327;SDS011;19692;52.998;9.116;2023-12-28T10:42:44;9.43;;;4.20;;
33327;SDS011;19692;52.998;9.116;2023-12-28T10:45:17;9.40;;;4.20;;
33327;SDS011;19692;52.998;9.116;2023-12-28T10:47:49;13.80;;;4.90;;
33327;SDS011;19692;52.998;9.116;2023-12-28T10:58:53;7.90;;;4.37;;
33327;SDS011;19692;52.998;9.116;2023-12-28T11:01:40;8.07;;;3.63;;
33327;SDS011;19692;52.998;9.116;2023-12-28T11:04:07;11.27;;;4.77;;
33327;SDS011;19692;52.998;9.116;2023-12-28T11:07:02;8.67;;;4.17;;
33327;SDS011;19692;52.998;9.116;2023-12-28T11:09:30;9.40;;;5.07;;
33327;SDS011;19692;52.998;9.116;2023-12-28T11:11:57;13.70;;;4.50;;
33327;SDS011;19692;52.998;9.116;2023-12-28T11:14:27;10.93;;;4.57;;
33327;SDS011;19692;52.998;9.116;2023-12-28T11:16:53;10.90;;;4.40;;
33327;SDS011;19692;52.998;9.116;2023-12-28T11:19:20;13.77;;;4.73;;
33327;SDS011;19692;52.998;9.116;2023-12-28T11:21:50;15.77;;;4.73;;
33327;SDS011;19692;52.998;9.116;2023-12-28T11:24:17;9.70;;;4.57;;
33327;SDS011;19692;52.998;9.116;2023-12-28T11:26:43;13.13;;;4.63;;
33327;SDS011;19692;52.998;9.116;2023-12-28T11:29:09;13.20;;;4.50;;
33327;SDS011;19692;52.998;9.116;2023-12-28T11:31:35;11.50;;;4.07;;
33327;SDS011;19692;52.998;9.116;2023-12-28T11:34:03;9.73;;;4.13;;
33327;SDS011;19692;52.998;9.116;2023-12-28T11:36:35;13.37;;;4.80;;
33327;SDS011;19692;52.998;9.116;2023-12-28T11:39:08;18.07;;;5.40;;
33327;SDS011;19692;52.998;9.116;2023-12-28T11:41:35;13.60;;;4.13;;
33327;SDS011;19692;52.998;9.116;2023-12-28T11:44:04;14.10;;;4.53;;
33327;SDS011;19692;52.998;9.116;2023-12-28T11:46:31;13.47;;;4.53;;
33327;SDS011;19692;52.998;9.116;2023-12-28T11:49:04;11.83;;;4.20;;
33327;SDS011;19692;52.998;9.116;2023-12-28T11:51:33;13.47;;;4.47;;
33327;SDS011;19692;52.998;9.116;2023-12-28T11:54:03;11.50;;;4.33;;
33327;SDS011;19692;52.998;9.116;2023-12-28T11:56:29;14.77;;;4.50;;
33327;SDS011;19692;52.998;9.116;2023-12-28T11:58:55;20.23;;;5.00;;
33327;SDS011;19692;52.998;9.116;2023-12-28T12:01:21;16.27;;;4.90;;
33327;SDS011;19692;52.998;9.116;2023-12-28T12:03:47;20.77;;;4.87;;
33327;SDS011;19692;52.998;9.116;2023-12-28T12:06:14;13.57;;;4.67;;
33327;SDS011;19692;52.998;9.116;2023-12-28T12:08:40;17.47;;;4.80;;
33327;SDS011;19692;52.998;9.116;2023-12-28T12:11:06;11.27;;;4.47;;
33327;SDS011;19692;52.998;9.116;2023-12-28T12:13:32;17.30;;;4.77;;
33327;SDS011;19692;52.998;9.116;2023-12-28T12:15:58;12.90;;;4.50;;
33327;SDS011;19692;52.998;9.116;2023-12-28T12:18:24;11.10;;;4.40;;
33327;SDS011;19692;52.998;9.116;2023-12-28T12:20:51;13.47;;;4.87;;
33327;SDS011;19692;52.998;9.116;2023-12-28T12:23:17;10.27;;;4.50;;
33327;SDS011;19692;52.998;9.116;2023-12-28T12:25:42;14.70;;;4.83;;
33327;SDS011;19692;52.998;9.116;2023-12-28T12:28:10;10.20;;;3.80;;
33327;SDS011;19692;52.998;9.116;2023-12-28T12:30:36;9.87;;;4.47;;
33327;SDS011;19692;52.998;9.116;2023-12-28T12:33:02;10.03;;;4.37;;
33327;SDS011;19692;52.998;9.116;2023-12-28T12:35:28;15.57;;;5.03;;
33327;SDS011;19692;52.998;9.116;2023-12-28T12:37:54;10.87;;;4.27;;
33327;SDS011;19692;52.998;9.116;2023-12-28T12:40:20;9.03;;;4.00;;
33327;SDS011;19692;52.998;9.116;2023-12-28T12:42:55;14.50;;;4.53;;
33327;SDS011;19692;52.998;9.116;2023-12-28T12:45:21;12.53;;;4.57;;
33327;SDS011;19692;52.998;9.116;2023-12-28T12:47:47;14.40;;;5.10;;
33327;SDS011;19692;52.998;9.116;2023-12-28T12:50:13;13.37;;;4.50;;
33327;SDS011;19692;52.998;9.116;2023-12-28T12:52:41;13.43;;;4.87;;
33327;SDS011;19692;52.998;9.116;2023-12-28T12:55:10;12.53;;;4.40;;
33327;SDS011;19692;52.998;9.116;2023-12-28T12:57:37;13.17;;;4.37;;
33327;SDS011;19692;52.998;9.116;2023-12-28T13:00:04;14.40;;;4.53;;
33327;SDS011;19692;52.998;9.116;2023-12-28T13:02:34;13.07;;;4.63;;
33327;SDS011;19692;52.998;9.116;2023-12-28T13:05:03;13.03;;;4.50;;
33327;SDS011;19692;52.998;9.116;2023-12-28T13:07:30;14.57;;;4.67;;
33327;SDS011;19692;52.998;9.116;2023-12-28T13:09:57;11.90;;;4.60;;
33327;SDS011;19692;52.998;9.116;2023-12-28T13:12:23;14.33;;;4.87;;
33327;SDS011;19692;52.998;9.116;2023-12-28T13:14:49;10.27;;;4.73;;
33327;SDS011;19692;52.998;9.116;2023-12-28T13:17:15;13.30;;;4.83;;
33327;SDS011;19692;52.998;9.116;2023-12-28T13:19:41;13.50;;;4.57;;
33327;SDS011;19692;52.998;9.116;2023-12-28T13:22:07;17.17;;;5.50;;
33327;SDS011;19692;52.998;9.116;2023-12-28T13:24:33;15.87;;;4.87;;
33327;SDS011;19692;52.998;9.116;2023-12-28T13:26:59;8.40;;;4.50;;
33327;SDS011;19692;52.998;9.116;2023-12-28T13:29:25;15.30;;;4.50;;
33327;SDS011;19692;52.998;9.116;2023-12-28T13:31:51;17.07;;;5.50;;
33327;SDS011;19692;52.998;9.116;2023-12-28T13:34:19;15.10;;;5.03;;
33327;SDS011;19692;52.998;9.116;2023-12-28T13:36:45;11.07;;;4.27;;
33327;SDS011;19692;52.998;9.116;2023-12-28T13:39:11;14.80;;;5.07;;
33327;SDS011;19692;52.998;9.116;2023-12-28T13:41:39;12.53;;;4.60;;
33327;SDS011;19692;52.998;9.116;2023-12-28T13:44:06;16.40;;;4.93;;
33327;SDS011;19692;52.998;9.116;2023-12-28T13:46:35;15.00;;;5.03;;
33327;SDS011;19692;52.998;9.116;2023-12-28T13:49:01;14.10;;;4.43;;
33327;SDS011;19692;52.998;9.116;2023-12-28T13:51:29;16.97;;;5.10;;
33327;SDS011;19692;52.998;9.116;2023-12-28T13:53:55;18.03;;;5.37;;
33327;SDS011;19692;52.998;9.116;2023-12-28T13:56:21;13.37;;;4.43;;
33327;SDS011;19692;52.998;9.116;2023-12-28T13:58:47;13.07;;;4.13;;
33327;SDS011;19692;52.998;9.116;2023-12-28T14:01:13;12.53;;;4.70;;
33327;SDS011;19692;52.998;9.116;2023-12-28T14:03:39;14.57;;;4.77;;
33327;SDS011;19692;52.998;9.116;2023-12-28T14:06:05;12.67;;;4.70;;
33327;SDS011;19692;52.998;9.116;2023-12-28T14:08:31;14.50;;;4.50;;
33327;SDS011;19692;52.998;9.116;2023-12-28T14:10:57;14.03;;;4.47;;
33327;SDS011;19692;52.998;9.116;2023-12-28T14:13:23;12.73;;;4.57;;
33327;SDS011;19692;52.998;9.116;2023-12-28T14:15:48;16.33;;;5.50;;
33327;SDS011;19692;52.998;9.116;2023-12-28T14:18:14;15.07;;;4.90;;
33327;SDS011;19692;52.998;9.116;2023-12-28T14:20:40;19.50;;;5.43;;
33327;SDS011;19692;52.998;9.116;2023-12-28T14:23:06;13.37;;;4.90;;
33327;SDS011;19692;52.998;9.116;2023-12-28T14:25:32;15.10;;;4.67;;
33327;SDS011;19692;52.998;9.116;2023-12-28T14:27:58;13.17;;;4.40;;
33327;SDS011;19692;52.998;9.116;2023-12-28T14:30:24;15.20;;;4.23;;
33327;SDS011;19692;52.998;9.116;2023-12-28T14:32:51;12.20;;;4.83;;
33327;SDS011;19692;52.998;9.116;2023-12-28T14:35:17;13.87;;;4.97;;
33327;SDS011;19692;52.998;9.116;2023-12-28T14:37:43;14.93;;;4.60;;
33327;SDS011;19692;52.998;9.116;2023-12-28T14:40:10;16.73;;;4.77;;
33327;SDS011;19692;52.998;9.116;2023-12-28T14:42:36;14.80;;;4.80;;
33327;SDS011;19692;52.998;9.116;2023-12-28T14:45:03;15.67;;;5.07;;
33327;SDS011;19692;52.998;9.116;2023-12-28T14:47:30;12.70;;;4.00;;
33327;SDS011;19692;52.998;9.116;2023-12-28T14:49:56;16.17;;;5.07;;
33327;SDS011;19692;52.998;9.116;2023-12-28T14:52:24;13.73;;;4.30;;